Time;durP1;ratioP1;P1;durP2;ratioP2;P2;SDS_P1;SDS_P2;PMS_P1;PMS_P2;Temp;Humidity;BMP_temperature;BMP_pressure;BME280_temperature;BME280_humidity;BME280_pressure;Samples;Min_cycle;Max_cycle;Signal;HPM_P1;HPM_P2
2022/05/14 14:36:36;;;;;;;8.63;2.50;;;19.90;68.40;;;;;;5090091;27;1226978;-80
2022/05/14 14:39:04;;;;;;;12.90;2.60;;;20.00;65.50;;;;;;5104652;28;20053;-79
2022/05/14 14:41:35;;;;;;;11.30;2.30;;;20.00;64.70;;;;;;5099024;28;20048;-79
2022/05/14 14:44:03;;;;;;;11.60;2.92;;;20.00;64.50;;;;;;5103649;28;20042;-79
2022/05/14 14:46:31;;;;;;;8.48;2.60;;;20.00;64.50;;;;;;5121296;28;20044;-79
2022/05/14 14:49:03;;;;;;;6.43;2.13;;;20.00;64.60;;;;;;5112621;28;20047;-81
2022/05/14 14:51:30;;;;;;;5.78;2.22;;;20.00;64.60;;;;;;5109450;28;20040;-80
2022/05/14 14:53:58;;;;;;;6.97;2.03;;;20.00;64.80;;;;;;5119953;28;20123;-80
2022/05/14 14:56:26;;;;;;;5.60;1.90;;;19.90;65.00;;;;;;5116114;28;20251;-79
2022/05/14 14:58:54;;;;;;;8.98;2.03;;;19.90;65.10;;;;;;5117962;28;20814;-80
2022/05/14 15:01:26;;;;;;;4.55;1.90;;;19.90;65.00;;;;;;5093451;28;20052;-78
2022/05/14 15:03:58;;;;;;;5.82;2.00;;;19.90;65.10;;;;;;5108513;28;20040;-78
2022/05/14 15:06:25;;;;;;;6.05;1.90;;;19.90;65.00;;;;;;5090852;28;20430;-78
2022/05/14 15:08:53;;;;;;;6.10;1.67;;;19.90;65.20;;;;;;5115818;28;20118;-80
2022/05/14 15:11:23;;;;;;;7.80;2.17;;;19.90;65.10;;;;;;5106964;28;20039;-80
2022/05/14 15:13:55;;;;;;;5.88;1.70;;;19.90;65.30;;;;;;5103026;28;20042;-80
2022/05/14 15:16:22;;;;;;;5.43;1.73;;;19.90;65.10;;;;;;5110384;28;20047;-79
2022/05/14 15:18:49;;;;;;;6.13;1.50;;;19.90;65.30;;;;;;5088538;28;20067;-80
2022/05/14 15:21:16;;;;;;;6.45;2.03;;;19.90;65.20;;;;;;5095260;28;20043;-78
2022/05/14 15:23:43;;;;;;;4.07;1.60;;;19.90;65.30;;;;;;5095985;28;20043;-80
2022/05/14 15:26:10;;;;;;;5.03;1.98;;;19.90;65.50;;;;;;5094965;28;20039;-78
2022/05/14 15:28:40;;;;;;;7.53;1.77;;;19.90;65.50;;;;;;5112111;28;20119;-80
2022/05/14 15:31:10;;;;;;;7.68;1.90;;;19.90;65.50;;;;;;5105893;28;20088;-79
2022/05/14 15:33:37;;;;;;;4.22;1.77;;;20.00;65.80;;;;;;5092216;28;20042;-78
2022/05/14 15:36:04;;;;;;;6.63;1.80;;;19.90;65.70;;;;;;5113584;28;20098;-78
2022/05/14 15:38:31;;;;;;;5.18;1.67;;;19.90;65.70;;;;;;5088881;28;20044;-77
2022/05/14 15:40:58;;;;;;;9.13;1.88;;;19.90;65.70;;;;;;5108190;28;20043;-78
2022/05/14 15:43:29;;;;;;;5.93;1.40;;;19.90;65.70;;;;;;5117979;28;20489;-76
2022/05/14 15:46:01;;;;;;;5.32;1.80;;;19.90;65.80;;;;;;5109937;28;20054;-77
2022/05/14 15:48:35;;;;;;;6.43;1.73;;;19.90;65.80;;;;;;5097987;28;20054;-79
2022/05/14 15:51:07;;;;;;;4.15;1.50;;;19.90;65.90;;;;;;5067208;28;20527;-79
2022/05/14 15:53:37;;;;;;;4.32;1.65;;;19.90;65.90;;;;;;5095193;28;20059;-76
2022/05/14 15:56:05;;;;;;;3.35;1.40;;;19.90;65.90;;;;;;5096066;28;20076;-80
2022/05/14 15:58:32;;;;;;;4.65;1.65;;;19.90;66.00;;;;;;5101352;28;20042;-79
2022/05/14 16:01:01;;;;;;;3.92;1.42;;;19.90;66.00;;;;;;5105388;28;20043;-78
2022/05/14 16:03:27;;;;;;;3.33;1.40;;;19.90;66.00;;;;;;5095220;28;20595;-79
2022/05/14 16:05:55;;;;;;;7.03;1.60;;;19.90;66.10;;;;;;5100548;28;20070;-78
2022/05/14 16:08:23;;;;;;;4.05;1.67;;;19.90;66.10;;;;;;5105207;28;20043;-77
2022/05/14 16:16:20;;;;;;;5.30;1.63;;;19.90;66.10;;;;;;5100631;28;20047;-77
2022/05/14 16:18:49;;;;;;;4.00;1.80;;;19.90;66.20;;;;;;5101797;28;20134;-79
2022/05/14 16:21:20;;;;;;;3.60;1.40;;;20.00;66.40;;;;;;5082805;28;20130;-80
2022/05/14 16:23:47;;;;;;;4.03;1.60;;;19.90;66.40;;;;;;5077183;28;20050;-78
2022/05/14 16:26:16;;;;;;;3.75;1.40;;;19.90;66.30;;;;;;5100420;28;20100;-78
2022/05/14 16:28:45;;;;;;;3.08;1.50;;;19.90;66.20;;;;;;5077482;28;20162;-78
2022/05/14 16:31:14;;;;;;;5.45;1.75;;;19.90;66.10;;;;;;5098661;28;20036;-81
2022/05/14 16:33:42;;;;;;;3.72;1.50;;;20.00;66.20;;;;;;5097977;28;20126;-80
2022/05/14 16:36:09;;;;;;;3.58;1.30;;;19.90;66.10;;;;;;5101268;28;20066;-80
2022/05/14 16:38:36;;;;;;;5.32;1.60;;;19.90;66.10;;;;;;5093277;28;20126;-79
2022/05/14 16:41:03;;;;;;;4.25;1.38;;;19.90;66.20;;;;;;5080871;28;20040;-81
2022/05/14 16:43:31;;;;;;;3.15;1.40;;;19.90;66.20;;;;;;5098859;28;20027;-80
2022/05/14 16:45:58;;;;;;;2.75;1.30;;;19.90;66.20;;;;;;5075077;28;20032;-80
2022/05/14 16:48:25;;;;;;;3.30;1.40;;;19.90;66.20;;;;;;5078043;28;20083;-80
2022/05/14 16:50:55;;;;;;;2.60;1.30;;;19.90;66.30;;;;;;5077134;28;20051;-80
2022/05/14 16:53:23;;;;;;;3.70;1.40;;;19.90;66.20;;;;;;5083751;28;20043;-81
2022/05/14 16:55:50;;;;;;;3.47;1.40;;;19.90;66.20;;;;;;5102451;28;20040;-80
2022/05/14 16:58:17;;;;;;;3.78;1.58;;;19.90;66.10;;;;;;5103056;28;20042;-80
2022/05/14 17:00:46;;;;;;;3.22;1.40;;;20.00;66.20;;;;;;5106564;28;20063;-81
2022/05/14 17:03:14;;;;;;;2.75;1.13;;;19.90;66.30;;;;;;5100871;28;20054;-80
2022/05/14 17:05:42;;;;;;;3.22;1.40;;;19.90;66.20;;;;;;5092175;28;20043;-80
2022/05/14 17:08:11;;;;;;;5.10;1.45;;;19.90;66.20;;;;;;5097194;28;20067;-79
2022/05/14 17:10:40;;;;;;;3.90;1.35;;;19.90;66.20;;;;;;5078794;28;20135;-79
2022/05/14 17:13:08;;;;;;;4.38;1.63;;;19.90;66.20;;;;;;5095793;28;20074;-80
2022/05/14 17:15:36;;;;;;;4.38;1.73;;;20.00;66.40;;;;;;5075587;28;20101;-81
2022/05/14 17:18:03;;;;;;;4.50;1.60;;;20.00;66.30;;;;;;5098255;28;20531;-80
2022/05/14 17:20:33;;;;;;;5.50;1.40;;;20.00;66.30;;;;;;5097110;28;20049;-79
2022/05/14 17:23:02;;;;;;;4.10;1.30;;;19.90;66.20;;;;;;5097771;28;20491;-80
2022/05/14 17:25:30;;;;;;;4.72;1.60;;;19.90;66.20;;;;;;5102797;28;20471;-80
2022/05/14 17:27:59;;;;;;;5.05;1.60;;;20.00;66.40;;;;;;5093353;28;20534;-81
2022/05/14 17:30:27;;;;;;;5.10;1.52;;;19.90;66.40;;;;;;5095313;28;20044;-80
2022/05/14 17:33:00;;;;;;;4.78;1.52;;;19.90;66.20;;;;;;5100129;28;20100;-79
2022/05/14 17:35:28;;;;;;;5.05;1.55;;;20.00;66.30;;;;;;5108942;28;20063;-83
2022/05/14 17:40:41;;;;;;;3.35;1.40;;;20.00;66.30;;;;;;5097704;28;20036;-80
2022/05/14 17:43:09;;;;;;;5.47;1.50;;;20.00;66.30;;;;;;5090032;28;20118;-80
2022/05/14 17:45:36;;;;;;;7.82;1.70;;;20.00;66.10;;;;;;5081311;28;20071;-76
2022/05/14 17:48:06;;;;;;;5.18;1.90;;;20.00;66.00;;;;;;5083799;28;20100;-80
2022/05/14 17:50:34;;;;;;;5.40;1.70;;;20.00;65.90;;;;;;5101178;28;20032;-81
2022/05/14 17:53:03;;;;;;;6.90;1.65;;;20.00;65.90;;;;;;5102209;28;20040;-80
2022/05/14 17:55:32;;;;;;;7.47;1.67;;;20.00;66.00;;;;;;5104357;28;20040;-82
2022/05/14 17:58:01;;;;;;;4.60;1.80;;;20.00;65.90;;;;;;5074887;28;20130;-79
2022/05/14 18:00:31;;;;;;;3.83;1.60;;;20.00;65.80;;;;;;5080396;28;20044;-79
2022/05/14 18:02:58;;;;;;;6.30;1.77;;;20.00;65.80;;;;;;5096610;28;20040;-82
2022/05/14 18:05:27;;;;;;;5.35;1.70;;;20.00;65.90;;;;;;5097994;28;20050;-80
2022/05/14 18:07:54;;;;;;;6.10;1.70;;;20.00;65.90;;;;;;5112724;28;20088;-80
2022/05/14 18:10:25;;;;;;;3.70;1.55;;;20.00;66.00;;;;;;5086144;28;20044;-80
2022/05/14 18:12:52;;;;;;;4.18;1.48;;;20.00;65.90;;;;;;5094955;28;20051;-80
2022/05/14 18:15:21;;;;;;;4.47;1.73;;;20.00;66.00;;;;;;5097239;28;20096;-80
2022/05/14 18:17:49;;;;;;;4.10;1.63;;;20.00;66.00;;;;;;5077308;28;20044;-78
2022/05/14 18:20:20;;;;;;;4.03;1.67;;;20.00;66.00;;;;;;5091183;28;20155;-78
2022/05/14 18:22:48;;;;;;;4.25;1.60;;;20.00;66.00;;;;;;5088999;28;20040;-82
2022/05/14 18:25:17;;;;;;;3.63;1.40;;;20.00;66.00;;;;;;5092558;28;20164;-79
2022/05/14 18:27:50;;;;;;;4.40;1.45;;;20.00;66.10;;;;;;5089762;28;20047;-79
2022/05/14 18:30:22;;;;;;;4.43;1.40;;;20.00;66.90;;;;;;5054685;28;20138;-79
2022/05/14 18:32:55;;;;;;;3.85;1.70;;;20.00;66.20;;;;;;5016240;28;20492;-79
2022/05/14 18:35:24;;;;;;;3.35;1.30;;;20.00;66.20;;;;;;5021709;28;20065;-79
2022/05/14 18:37:54;;;;;;;3.65;1.38;;;20.00;66.20;;;;;;5021115;28;20047;-81
2022/05/14 18:40:26;;;;;;;3.08;1.30;;;20.00;66.30;;;;;;5029711;28;20767;-78
2022/05/14 18:42:56;;;;;;;3.35;1.60;;;20.00;66.40;;;;;;5022529;28;20602;-80
2022/05/14 18:45:24;;;;;;;4.40;1.60;;;20.00;66.30;;;;;;5028691;28;20816;-80
2022/05/14 18:47:51;;;;;;;4.57;1.65;;;20.00;66.40;;;;;;5030050;28;20037;-80
2022/05/14 18:50:18;;;;;;;3.33;1.40;;;20.00;66.50;;;;;;5025956;28;20116;-79
2022/05/14 18:52:46;;;;;;;2.22;1.30;;;20.00;66.50;;;;;;5024278;28;20049;-79
2022/05/14 18:55:13;;;;;;;3.20;1.25;;;20.00;66.50;;;;;;5034945;28;20515;-79
2022/05/14 18:57:42;;;;;;;5.00;1.60;;;20.00;66.70;;;;;;5025133;28;20091;-80
2022/05/14 19:00:11;;;;;;;3.15;1.50;;;20.00;66.70;;;;;;5012654;28;20033;-79
2022/05/14 19:02:39;;;;;;;3.33;1.33;;;20.00;66.80;;;;;;5037688;28;20052;-80
2022/05/14 19:08:02;;;;;;;3.78;1.58;;;20.00;67.00;;;;;;5030496;28;20049;-78
2022/05/14 19:10:29;;;;;;;3.42;1.58;;;19.90;67.00;;;;;;5028294;28;20051;-80
2022/05/14 19:13:00;;;;;;;2.47;1.20;;;20.00;67.10;;;;;;5028043;28;20041;-79
2022/05/14 19:15:28;;;;;;;2.70;1.30;;;19.90;67.00;;;;;;5017835;28;20113;-79
2022/05/14 19:17:57;;;;;;;5.22;1.52;;;19.90;67.00;;;;;;5037753;28;20140;-78
2022/05/14 19:20:24;;;;;;;3.55;1.67;;;19.90;67.00;;;;;;5034263;28;20041;-78
2022/05/14 19:22:51;;;;;;;3.78;1.50;;;19.90;67.00;;;;;;5015415;28;20604;-80
2022/05/14 19:25:17;;;;;;;3.75;1.60;;;19.90;67.00;;;;;;5029180;28;20038;-80
2022/05/14 19:27:44;;;;;;;5.90;1.80;;;19.90;67.00;;;;;;5030728;28;20049;-79
2022/05/14 19:30:13;;;;;;;4.75;1.55;;;19.90;67.10;;;;;;5037202;28;20037;-79
2022/05/14 19:32:40;;;;;;;4.20;1.63;;;19.90;67.20;;;;;;5039199;28;20041;-80
2022/05/14 19:35:10;;;;;;;2.92;1.50;;;19.90;67.20;;;;;;5030764;28;20053;-79
2022/05/14 19:37:41;;;;;;;2.63;1.40;;;19.90;67.20;;;;;;5015888;28;20127;-78
2022/05/14 19:40:14;;;;;;;3.97;1.40;;;19.90;67.30;;;;;;5011552;28;20038;-80
2022/05/14 19:42:45;;;;;;;4.70;1.52;;;19.90;67.30;;;;;;5016840;28;20037;-79
2022/05/14 19:45:18;;;;;;;5.68;1.67;;;19.90;67.40;;;;;;5019218;28;20048;-78
2022/05/14 19:47:50;;;;;;;4.68;1.73;;;19.90;67.30;;;;;;5034782;28;20066;-80
2022/05/14 19:50:21;;;;;;;4.80;1.60;;;19.80;67.20;;;;;;5017537;28;20091;-79
2022/05/14 19:52:48;;;;;;;4.68;1.80;;;19.90;67.40;;;;;;5013761;28;20660;-81
2022/05/14 19:55:16;;;;;;;5.38;1.85;;;19.80;67.20;;;;;;5015421;28;20061;-78
2022/05/14 19:57:43;;;;;;;4.28;1.70;;;19.90;67.40;;;;;;5018510;28;20127;-79
2022/05/14 20:00:12;;;;;;;3.05;1.58;;;19.80;67.30;;;;;;5012045;28;20050;-79
2022/05/14 20:02:40;;;;;;;3.45;1.35;;;19.90;67.50;;;;;;5015130;28;20040;-78
2022/05/14 20:05:08;;;;;;;4.90;1.60;;;19.80;67.40;;;;;;5036905;28;20256;-78
2022/05/14 20:07:39;;;;;;;5.13;1.52;;;19.90;67.70;;;;;;5032788;28;20499;-79
2022/05/14 20:10:09;;;;;;;3.92;1.63;;;19.80;67.50;;;;;;5029954;28;20034;-78
2022/05/14 20:12:37;;;;;;;4.20;1.80;;;19.80;67.60;;;;;;5021646;28;20030;-78
2022/05/14 20:15:06;;;;;;;3.63;1.65;;;19.80;67.60;;;;;;5020739;28;20048;-82
2022/05/14 20:23:13;;;;;;;3.20;1.50;;;19.80;67.80;;;;;;5032337;28;20071;-78
2022/05/14 20:25:43;;;;;;;5.32;1.40;;;19.80;67.80;;;;;;5039586;28;20041;-79
2022/05/14 20:28:11;;;;;;;4.97;1.50;;;19.80;67.90;;;;;;5021075;28;20038;-80
2022/05/14 20:30:38;;;;;;;2.53;1.40;;;19.80;67.90;;;;;;5018329;28;20105;-79
2022/05/14 20:33:08;;;;;;;3.78;1.50;;;19.80;68.00;;;;;;5015902;28;20033;-81
2022/05/14 20:35:37;;;;;;;7.10;1.95;;;19.80;68.10;;;;;;5026928;28;20057;-80
2022/05/14 20:38:04;;;;;;;4.63;1.70;;;19.80;68.10;;;;;;5009162;28;20061;-79
2022/05/14 20:40:34;;;;;;;3.28;1.63;;;19.80;68.10;;;;;;5011120;28;20128;-79
2022/05/14 20:43:01;;;;;;;5.60;1.60;;;19.80;68.10;;;;;;5009416;28;20112;-79
2022/05/14 20:45:30;;;;;;;4.80;1.73;;;19.80;68.10;;;;;;5012715;28;20048;-78
2022/05/14 20:47:57;;;;;;;3.25;1.60;;;19.80;68.10;;;;;;5005028;28;20030;-79
2022/05/14 20:50:27;;;;;;;3.00;1.50;;;19.80;68.10;;;;;;5007389;28;20132;-78
2022/05/14 20:52:55;;;;;;;4.95;1.35;;;19.80;68.10;;;;;;5008030;28;20030;-79
2022/05/14 20:55:24;;;;;;;3.10;1.30;;;19.80;68.20;;;;;;5024844;28;20387;-78
2022/05/14 20:57:52;;;;;;;3.30;1.40;;;19.80;68.20;;;;;;5013875;28;20049;-80
2022/05/14 21:00:22;;;;;;;3.35;1.50;;;19.80;68.20;;;;;;5011523;28;20128;-80
2022/05/14 21:02:51;;;;;;;3.13;1.40;;;19.80;68.30;;;;;;5024271;28;20045;-80
2022/05/14 21:05:20;;;;;;;5.47;1.63;;;19.80;68.20;;;;;;5015314;28;20029;-78
2022/05/14 21:07:48;;;;;;;6.25;1.50;;;19.80;68.30;;;;;;5008502;28;20053;-79
2022/05/14 21:10:22;;;;;;;5.88;1.52;;;19.80;68.30;;;;;;5011125;28;20045;-81
2022/05/14 21:12:49;;;;;;;5.38;1.50;;;19.80;68.40;;;;;;5013892;28;20124;-78
2022/05/14 21:15:20;;;;;;;3.78;1.65;;;19.80;68.50;;;;;;5012654;28;20045;-80
2022/05/14 21:17:48;;;;;;;3.45;1.33;;;19.80;68.60;;;;;;5010756;28;20052;-80
2022/05/14 21:20:16;;;;;;;5.88;1.50;;;19.80;68.50;;;;;;5000396;28;20040;-80
2022/05/14 21:22:43;;;;;;;4.10;1.70;;;19.80;68.50;;;;;;5026838;28;20045;-80
2022/05/14 21:25:28;;;;;;;3.25;1.52;;;19.80;68.50;;;;;;5012633;28;20563;-81
2022/05/14 21:27:55;;;;;;;5.82;1.50;;;19.80;68.50;;;;;;5012350;28;20034;-79
2022/05/14 21:30:24;;;;;;;3.80;1.63;;;19.80;68.60;;;;;;5013361;28;20049;-79
2022/05/14 21:32:52;;;;;;;4.63;1.30;;;19.80;68.50;;;;;;5025559;28;20110;-80
2022/05/14 21:38:07;;;;;;;3.58;1.40;;;19.70;68.50;;;;;;5040785;28;20045;-80
2022/05/14 21:40:36;;;;;;;4.63;1.40;;;19.80;68.60;;;;;;5036346;28;20124;-80
2022/05/14 21:43:06;;;;;;;4.15;1.50;;;19.70;68.60;;;;;;5032299;28;20040;-80
2022/05/14 21:45:36;;;;;;;2.50;1.42;;;19.70;68.60;;;;;;5030186;28;20041;-80
2022/05/14 21:48:04;;;;;;;4.57;1.38;;;19.70;68.80;;;;;;5026323;28;20116;-80
2022/05/14 21:50:32;;;;;;;2.40;1.40;;;19.70;68.90;;;;;;5034264;28;20047;-78
2022/05/14 21:53:03;;;;;;;2.45;1.40;;;19.70;68.80;;;;;;5031576;28;20075;-79
2022/05/14 21:55:32;;;;;;;2.92;1.60;;;19.70;68.80;;;;;;5017025;28;20045;-81
2022/05/14 21:58:00;;;;;;;5.47;1.40;;;19.70;68.80;;;;;;5014351;28;20762;-78
2022/05/14 22:00:51;;;;;;;3.30;1.70;;;19.70;68.80;;;;;;5018178;28;20047;-80
2022/05/14 22:03:21;;;;;;;2.78;1.35;;;19.70;69.00;;;;;;5027290;28;20487;-80
2022/05/14 22:05:53;;;;;;;3.15;1.55;;;19.70;69.00;;;;;;5033935;28;20037;-79
2022/05/14 22:08:20;;;;;;;4.13;1.65;;;19.70;69.10;;;;;;5033608;28;21040;-80
2022/05/14 22:10:47;;;;;;;3.35;1.40;;;19.70;69.00;;;;;;5036441;28;20038;-80
2022/05/14 22:13:14;;;;;;;4.30;1.75;;;19.70;69.00;;;;;;5040301;28;20053;-79
2022/05/14 22:15:43;;;;;;;2.92;1.40;;;19.70;69.00;;;;;;5038782;28;20257;-80
2022/05/14 22:18:14;;;;;;;3.60;1.50;;;19.70;69.00;;;;;;5031774;28;20038;-79
2022/05/14 22:20:42;;;;;;;2.90;1.58;;;19.70;69.00;;;;;;5030474;28;20045;-80
2022/05/14 22:23:10;;;;;;;2.90;1.50;;;19.70;69.10;;;;;;5030427;28;20033;-81
2022/05/14 22:25:38;;;;;;;3.53;1.40;;;19.70;69.30;;;;;;5040048;28;20068;-80
2022/05/14 22:28:06;;;;;;;3.63;1.58;;;19.70;69.10;;;;;;5026503;28;20112;-82
2022/05/14 22:30:39;;;;;;;3.80;1.70;;;19.70;69.20;;;;;;5032483;28;20098;-81
2022/05/14 22:33:06;;;;;;;3.67;1.40;;;19.70;69.30;;;;;;5029903;28;20454;-81
2022/05/14 22:35:35;;;;;;;3.70;1.60;;;19.70;69.30;;;;;;5035074;28;20762;-80
2022/05/14 22:38:02;;;;;;;3.13;1.60;;;19.70;69.20;;;;;;5016302;28;20443;-79
2022/05/14 22:43:19;;;;;;;3.63;1.55;;;19.70;69.30;;;;;;5012941;28;20510;-80
2022/05/14 22:45:46;;;;;;;3.92;1.70;;;19.70;69.20;;;;;;5032053;28;20077;-80
2022/05/14 22:48:14;;;;;;;3.72;1.63;;;19.60;70.00;;;;;;5032878;28;20522;-79
2022/05/14 22:50:44;;;;;;;3.78;1.52;;;19.70;69.40;;;;;;5033170;28;20048;-81
2022/05/14 22:53:13;;;;;;;4.32;1.58;;;19.70;69.40;;;;;;5033841;28;20049;-80
2022/05/14 22:55:46;;;;;;;3.75;1.80;;;19.70;69.40;;;;;;5032285;28;20133;-81
2022/05/14 22:58:13;;;;;;;4.25;1.52;;;19.70;69.50;;;;;;5037012;28;20056;-81
2022/05/14 23:00:42;;;;;;;2.60;1.40;;;19.70;69.40;;;;;;5018549;28;20384;-79
2022/05/14 23:03:10;;;;;;;2.97;1.60;;;19.70;69.40;;;;;;5019797;28;20048;-80
2022/05/14 23:05:39;;;;;;;2.65;1.42;;;19.70;69.30;;;;;;5038108;28;20049;-82
2022/05/14 23:08:09;;;;;;;3.97;1.80;;;19.70;69.20;;;;;;5032817;28;20586;-82
2022/05/14 23:10:56;;;;;;;3.50;1.60;;;19.70;69.20;;;;;;5044422;28;20041;-79
2022/05/14 23:13:24;;;;;;;3.00;1.40;;;19.70;69.10;;;;;;5033575;28;20083;-79
2022/05/14 23:15:52;;;;;;;3.50;1.35;;;19.60;69.10;;;;;;5030903;28;20071;-81
2022/05/14 23:18:19;;;;;;;3.33;1.58;;;19.70;69.10;;;;;;5015883;28;20049;-80
2022/05/14 23:20:47;;;;;;;2.60;1.50;;;19.70;69.20;;;;;;5022357;28;20050;-81
2022/05/14 23:23:19;;;;;;;4.68;1.70;;;19.60;69.00;;;;;;5031922;28;20033;-81
2022/05/14 23:25:46;;;;;;;3.40;1.48;;;19.60;69.10;;;;;;5032975;28;20055;-81
2022/05/14 23:28:14;;;;;;;3.15;1.50;;;19.60;69.00;;;;;;5030211;28;20045;-80
2022/05/14 23:30:45;;;;;;;3.83;1.65;;;19.60;69.10;;;;;;5035743;28;20324;-80
2022/05/14 23:33:12;;;;;;;3.75;1.50;;;19.60;69.00;;;;;;5031891;28;20797;-82
2022/05/14 23:36:23;;;;;;;3.33;1.40;;;19.60;69.00;;;;;;5036911;28;20056;-80
2022/05/14 23:38:31;;;;;;;3.35;1.50;;;19.60;69.00;;;;;;5034618;28;20056;-81
2022/05/14 23:40:58;;;;;;;2.35;1.30;;;19.60;69.00;;;;;;5015679;28;20057;-81
2022/05/14 23:43:25;;;;;;;2.88;1.50;;;19.60;69.00;;;;;;5039196;28;20098;-80
2022/05/14 23:45:53;;;;;;;4.40;1.40;;;19.60;69.10;;;;;;5034977;28;20575;-82
2022/05/14 23:48:20;;;;;;;2.97;1.40;;;19.60;69.00;;;;;;5016003;28;20378;-80
2022/05/14 23:50:47;;;;;;;2.95;1.50;;;19.60;69.00;;;;;;5041258;28;20160;-81
2022/05/14 23:53:14;;;;;;;2.78;1.30;;;19.70;69.10;;;;;;5044485;28;20049;-81
2022/05/14 23:55:42;;;;;;;3.38;1.60;;;19.60;69.80;;;;;;5036989;28;20423;-81
